Time;durP1;ratioP1;P1;durP2;ratioP2;P2;SDS_P1;SDS_P2;PMS_P1;PMS_P2;Temp;Humidity;BMP_temperature;BMP_pressure;BME280_temperature;BME280_humidity;BME280_pressure;Samples;Min_cycle;Max_cycle;Signal;HPM_P1;HPM_P2
2023/03/14 00:01:11;;;;;;;0.50;0.40;;;;;;;11.21;97.95;97045.25;4992219;28;103679;-65
2023/03/14 00:03:39;;;;;;;1.67;0.57;;;;;;;11.41;96.62;97067.88;4989771;28;104044;-65
2023/03/14 00:06:09;;;;;;;0.93;0.50;;;;;;;11.30;96.87;97061.03;4993776;28;103205;-65
2023/03/14 00:08:37;;;;;;;1.07;0.57;;;;;;;11.18;98.39;97059.59;4991956;28;102692;-66
2023/03/14 00:11:07;;;;;;;1.83;0.50;;;;;;;11.39;96.77;97088.34;4989275;28;102792;-65
2023/03/14 00:13:37;;;;;;;0.40;0.40;;;;;;;11.25;97.76;97078.31;4991563;28;104051;-65
2023/03/14 00:16:06;;;;;;;1.13;0.60;;;;;;;11.25;97.50;97068.59;4988294;28;103204;-66
2023/03/14 00:18:34;;;;;;;0.67;0.50;;;;;;;11.24;97.99;97060.78;4987799;28;102691;-65
2023/03/14 00:21:04;;;;;;;0.50;0.50;;;;;;;11.28;97.86;97048.94;4991354;28;102842;-65
2023/03/14 00:23:33;;;;;;;1.33;0.50;;;;;;;11.59;95.91;97044.84;4997514;28;103237;-65
2023/03/14 00:26:02;;;;;;;0.97;0.60;;;;;;;11.52;95.92;97043.81;4992893;28;102879;-65
2023/03/14 00:28:30;;;;;;;0.87;0.67;;;;;;;11.52;95.22;97033.22;4999238;28;103838;-65
2023/03/14 00:30:59;;;;;;;1.17;0.50;;;;;;;11.59;94.33;97034.28;4992779;28;102818;-65
2023/03/14 00:33:27;;;;;;;1.03;0.63;;;;;;;11.72;94.08;97034.69;4989150;28;104120;-65
2023/03/14 00:35:58;;;;;;;0.70;0.70;;;;;;;11.55;94.06;97048.78;4995841;28;103169;-65
2023/03/14 00:38:26;;;;;;;0.60;0.60;;;;;;;11.67;93.33;97047.53;5000169;28;102669;-65
2023/03/14 00:40:55;;;;;;;0.57;0.50;;;;;;;11.83;93.01;97058.22;4992121;28;104399;-65
2023/03/14 00:43:23;;;;;;;0.77;0.57;;;;;;;11.82;92.88;97055.72;4993816;28;104331;-65
2023/03/14 00:45:52;;;;;;;0.77;0.53;;;;;;;11.61;94.04;97058.75;4994129;28;103254;-66
2023/03/14 00:48:22;;;;;;;0.40;0.37;;;;;;;11.75;92.66;97054.72;4997439;28;102670;-65
2023/03/14 00:50:50;;;;;;;1.23;0.60;;;;;;;11.75;92.99;97052.91;4995028;28;102734;-65
2023/03/14 00:53:18;;;;;;;0.57;0.57;;;;;;;11.77;92.17;97053.56;4993715;28;103245;-65
2023/03/14 00:55:49;;;;;;;0.60;0.50;;;;;;;11.88;91.83;97063.03;4990071;28;103236;-66
2023/03/14 00:58:19;;;;;;;1.53;0.50;;;;;;;11.88;91.58;97066.50;4994172;28;103124;-64
2023/03/14 01:00:47;;;;;;;0.60;0.60;;;;;;;11.96;90.85;97069.19;4994967;28;102930;-65
2023/03/14 01:03:16;;;;;;;1.13;0.60;;;;;;;11.97;90.03;97070.03;4997050;28;104212;-65
2023/03/14 01:05:45;;;;;;;0.90;0.50;;;;;;;11.89;90.66;97073.47;4990480;28;103421;-65
2023/03/14 01:08:13;;;;;;;1.13;0.40;;;;;;;11.99;90.13;97073.34;4985368;28;102705;-65
2023/03/14 01:10:42;;;;;;;0.60;0.40;;;;;;;11.99;89.97;97074.19;4988890;28;104458;-65
2023/03/14 01:13:10;;;;;;;0.60;0.40;;;;;;;12.18;88.93;97087.16;4990799;28;104020;-65
2023/03/14 01:15:38;;;;;;;0.97;0.50;;;;;;;12.27;88.40;97081.91;4986417;28;103189;-65
2023/03/14 01:18:06;;;;;;;0.60;0.43;;;;;;;11.96;88.91;97079.78;4988568;28;102937;-66
2023/03/14 01:20:34;;;;;;;1.17;0.67;;;;;;;12.08;89.09;97067.94;4989521;28;102859;-65
2023/03/14 01:23:04;;;;;;;0.60;0.40;;;;;;;11.92;90.33;97062.59;4990520;28;104306;-65
2023/03/14 01:25:32;;;;;;;1.10;0.50;;;;;;;11.99;89.72;97057.47;4991591;28;103766;-65
2023/03/14 01:28:00;;;;;;;1.00;0.50;;;;;;;12.06;89.87;97051.41;4984400;28;104580;-59
2023/03/14 01:30:29;;;;;;;1.37;0.50;;;;;;;11.89;89.80;97036.44;4991087;28;103232;-59
2023/03/14 01:32:57;;;;;;;0.33;0.33;;;;;;;12.01;88.96;97019.25;4988392;28;103242;-59
2023/03/14 01:35:25;;;;;;;0.50;0.50;;;;;;;12.18;88.62;97020.97;5005870;28;103177;-59
2023/03/14 01:37:55;;;;;;;0.40;0.40;;;;;;;12.32;87.81;97021.38;4990207;28;102922;-59
2023/03/14 01:40:25;;;;;;;0.40;0.40;;;;;;;12.18;88.43;96999.00;4987009;28;102765;-59
2023/03/14 01:42:58;;;;;;;0.63;0.40;;;;;;;12.00;88.59;96987.69;4988021;28;106596;-59
2023/03/14 01:46:12;;;;;;;0.53;0.53;;;;;;;12.11;88.18;96971.50;4988643;28;105143;-59
2023/03/14 01:48:46;;;;;;;0.73;0.47;;;;;;;12.12;87.77;96963.41;4951813;28;104257;-59
2023/03/14 01:51:18;;;;;;;0.40;0.40;;;;;;;12.07;87.79;96957.75;4989796;28;104178;-59
2023/03/14 01:53:48;;;;;;;0.70;0.40;;;;;;;11.96;88.27;96962.50;4989706;28;103263;-59
2023/03/14 01:56:20;;;;;;;0.47;0.40;;;;;;;11.95;88.12;96968.81;4987515;28;103029;-60
2023/03/14 01:58:51;;;;;;;0.50;0.50;;;;;;;11.81;88.12;96983.50;4986780;28;102733;-59
2023/03/14 02:01:23;;;;;;;0.97;0.60;;;;;;;11.75;88.41;96968.25;4983640;28;103130;-59
2023/03/14 02:03:55;;;;;;;0.50;0.50;;;;;;;11.84;87.21;96964.66;4984959;28;103555;-59
2023/03/14 02:06:30;;;;;;;2.37;0.60;;;;;;;11.82;87.12;96963.97;4998510;28;105303;-59
2023/03/14 02:09:01;;;;;;;0.90;0.47;;;;;;;11.85;86.59;96961.00;4985861;28;102642;-59
2023/03/14 02:11:34;;;;;;;1.90;0.77;;;;;;;11.84;85.80;96972.59;4988704;28;102980;-59
2023/03/14 02:14:25;;;;;;;0.83;0.53;;;;;;;11.77;84.47;96960.97;4988998;28;103403;-59
2023/03/14 02:17:01;;;;;;;1.60;0.67;;;;;;;11.90;84.93;96963.19;4986269;28;105059;-59
2023/03/14 02:20:07;;;;;;;0.63;0.40;;;;;;;11.86;84.84;96952.09;4989823;28;102791;-59
2023/03/14 02:22:41;;;;;;;0.77;0.50;;;;;;;11.83;84.73;96946.28;5003755;28;102839;-59
2023/03/14 02:25:17;;;;;;;0.63;0.63;;;;;;;11.91;85.11;96949.78;4987927;28;103511;-59
2023/03/14 02:27:48;;;;;;;0.50;0.47;;;;;;;11.88;84.88;96944.81;4990699;28;103950;-60
2023/03/14 02:30:20;;;;;;;0.80;0.60;;;;;;;11.80;84.82;96925.44;4989325;28;102795;-59
2023/03/14 02:32:53;;;;;;;0.63;0.60;;;;;;;11.66;85.28;96924.19;4986921;28;102877;-60
2023/03/14 02:35:24;;;;;;;1.47;0.50;;;;;;;11.69;85.54;96907.19;4990469;28;103285;-59
2023/03/14 02:37:56;;;;;;;0.40;0.37;;;;;;;11.65;85.77;96915.44;4987988;28;103281;-59
2023/03/14 02:40:26;;;;;;;1.00;0.40;;;;;;;11.82;85.03;96913.69;4993988;28;102712;-59
2023/03/14 02:42:55;;;;;;;1.10;0.50;;;;;;;11.56;86.35;96928.81;4996768;28;103178;-59
2023/03/14 02:45:38;;;;;;;1.30;0.50;;;;;;;11.63;86.18;96937.75;4996202;28;103895;-58
2023/03/14 02:48:11;;;;;;;0.60;0.50;;;;;;;11.85;85.58;96939.00;4987299;28;103285;-59
2023/03/14 02:50:40;;;;;;;0.50;0.50;;;;;;;11.71;85.84;96919.28;4992544;28;102786;-59
2023/03/14 02:53:08;;;;;;;0.43;0.43;;;;;;;11.84;85.75;96927.63;4994194;28;104454;-59
2023/03/14 02:55:38;;;;;;;0.80;0.30;;;;;;;11.71;86.28;96937.81;4986618;28;105069;-60
2023/03/14 02:58:13;;;;;;;0.53;0.50;;;;;;;11.77;85.49;96913.34;4990993;28;105177;-59
2023/03/14 03:00:41;;;;;;;0.50;0.40;;;;;;;11.84;85.21;96910.91;4994226;28;102726;-59
2023/03/14 03:03:11;;;;;;;0.70;0.60;;;;;;;11.65;86.18;96901.38;4992348;28;103151;-59
2023/03/14 03:05:42;;;;;;;2.60;0.60;;;;;;;11.75;85.05;96888.06;4990618;28;104310;-59
2023/03/14 03:08:11;;;;;;;0.70;0.63;;;;;;;11.60;85.39;96882.53;4988890;28;103908;-59
2023/03/14 03:10:39;;;;;;;1.03;0.43;;;;;;;11.69;85.05;96886.03;4986406;28;102981;-59
2023/03/14 03:13:07;;;;;;;3.17;0.60;;;;;;;11.62;84.71;96893.78;4985855;28;104359;-59
2023/03/14 03:15:37;;;;;;;1.27;0.67;;;;;;;11.63;84.29;96883.03;4983617;28;106002;-59
2023/03/14 03:18:05;;;;;;;0.60;0.40;;;;;;;11.56;84.46;96878.56;4987652;28;104154;-59
2023/03/14 03:20:36;;;;;;;2.30;0.50;;;;;;;11.61;83.82;96865.66;4991798;28;102707;-59
2023/03/14 03:23:05;;;;;;;2.00;0.50;;;;;;;11.63;83.64;96863.69;4991290;28;104457;-59
2023/03/14 03:25:33;;;;;;;1.63;0.50;;;;;;;11.62;83.46;96864.69;4989058;28;103188;-59
2023/03/14 03:28:07;;;;;;;0.67;0.50;;;;;;;11.76;82.89;96866.72;4992054;28;104003;-59
2023/03/14 03:30:40;;;;;;;0.70;0.60;;;;;;;11.70;83.16;96864.75;4991065;28;102834;-60
2023/03/14 03:33:09;;;;;;;1.43;0.70;;;;;;;11.51;82.58;96863.16;4986271;28;103965;-59
2023/03/14 03:35:43;;;;;;;2.17;0.50;;;;;;;11.73;82.58;96867.06;4990918;28;103260;-59
2023/03/14 03:38:12;;;;;;;0.50;0.50;;;;;;;11.59;81.89;96851.78;4986735;28;103295;-60
2023/03/14 03:40:40;;;;;;;1.13;0.70;;;;;;;11.57;81.64;96848.47;4991048;28;103184;-59
2023/03/14 03:43:09;;;;;;;2.13;0.77;;;;;;;11.65;80.80;96848.47;4988011;28;104667;-59
2023/03/14 03:45:41;;;;;;;2.33;1.40;;;;;;;11.69;81.13;96849.00;4988919;28;103335;-59
2023/03/14 03:48:11;;;;;;;1.50;0.57;;;;;;;11.50;79.75;96839.53;4989779;28;103432;-59
2023/03/14 03:50:45;;;;;;;1.57;0.70;;;;;;;11.77;79.85;96846.38;4991621;28;102895;-60
2023/03/14 03:53:15;;;;;;;1.77;0.70;;;;;;;11.83;79.76;96857.16;4991831;28;104242;-59
2023/03/14 03:55:59;;;;;;;2.43;0.70;;;;;;;11.56;79.71;96844.19;4991244;28;105318;-59
2023/03/14 03:58:27;;;;;;;1.00;0.70;;;;;;;11.57;80.12;96846.66;4991353;28;103193;-59
2023/03/14 04:00:58;;;;;;;1.67;0.67;;;;;;;11.61;79.33;96844.50;4989431;28;102724;-59
2023/03/14 04:03:26;;;;;;;1.73;0.83;;;;;;;11.68;78.93;96847.34;4999460;28;102836;-59
2023/03/14 04:06:00;;;;;;;0.83;0.60;;;;;;;11.64;79.34;96838.91;4991400;28;105935;-59
2023/03/14 04:08:28;;;;;;;4.20;0.60;;;;;;;11.23;79.17;96842.41;4999919;28;102959;-59
2023/03/14 04:10:58;;;;;;;2.20;0.60;;;;;;;11.58;78.73;96842.19;4993471;28;102806;-59
2023/03/14 04:13:48;;;;;;;4.87;0.97;;;;;;;11.57;78.71;96836.06;4994919;28;103886;-59
2023/03/14 04:16:19;;;;;;;1.33;0.70;;;;;;;11.71;78.72;96836.44;4994845;28;103266;-60
2023/03/14 04:18:48;;;;;;;2.37;0.67;;;;;;;11.43;78.64;96833.22;4992836;28;103191;-59
2023/03/14 04:21:20;;;;;;;1.80;0.90;;;;;;;11.56;77.18;96830.97;4990814;28;102909;-59
2023/03/14 04:23:51;;;;;;;1.53;0.60;;;;;;;11.69;77.68;96831.34;4995378;28;103898;-59
2023/03/14 04:26:19;;;;;;;1.00;0.60;;;;;;;11.68;77.06;96831.47;4989591;28;103262;-60
2023/03/14 04:28:47;;;;;;;1.77;0.70;;;;;;;11.62;76.48;96838.25;4992928;28;104186;-59
2023/03/14 04:31:18;;;;;;;1.23;0.70;;;;;;;11.68;76.49;96834.94;4995486;28;102916;-59
2023/03/14 04:33:47;;;;;;;2.90;0.90;;;;;;;11.61;76.23;96833.94;4994322;28;102854;-59
2023/03/14 04:36:20;;;;;;;2.77;1.00;;;;;;;11.53;76.48;96836.56;4994029;28;103047;-59
2023/03/14 04:38:48;;;;;;;2.23;0.93;;;;;;;11.41;77.13;96825.47;4989049;28;105857;-59
2023/03/14 04:41:20;;;;;;;3.17;1.30;;;;;;;11.49;76.55;96828.13;4994806;28;103011;-59
2023/03/14 04:43:48;;;;;;;1.30;0.80;;;;;;;11.40;76.67;96822.97;4997830;28;104011;-59
2023/03/14 04:46:18;;;;;;;3.07;0.73;;;;;;;11.61;75.50;96816.25;4990793;28;104221;-59
2023/03/14 04:48:46;;;;;;;3.23;0.80;;;;;;;11.57;76.30;96808.78;4998027;28;103300;-60
2023/03/14 04:51:14;;;;;;;3.23;0.90;;;;;;;11.59;76.68;96817.41;4996520;28;102822;-59
2023/03/14 04:53:42;;;;;;;1.63;0.70;;;;;;;11.45;76.82;96807.47;4991173;28;104648;-59
2023/03/14 04:56:12;;;;;;;1.20;0.90;;;;;;;11.46;76.41;96802.00;4985831;28;104138;-59
2023/03/14 04:58:43;;;;;;;2.00;0.90;;;;;;;11.40;75.78;96801.81;4996767;28;104111;-59
2023/03/14 05:01:14;;;;;;;2.77;0.70;;;;;;;11.31;76.93;96787.75;4991439;28;102768;-59
2023/03/14 05:04:11;;;;;;;2.03;0.90;;;;;;;11.32;75.79;96789.41;4997953;28;102687;-59
2023/03/14 05:06:58;;;;;;;1.73;0.70;;;;;;;11.26;76.20;96790.03;4996173;28;103738;-60
2023/03/14 05:09:34;;;;;;;1.00;0.70;;;;;;;11.46;75.60;96793.22;4995059;28;104242;-59
2023/03/14 05:12:21;;;;;;;2.17;0.90;;;;;;;11.24;76.82;96792.03;4992198;28;102690;-59
2023/03/14 05:15:07;;;;;;;2.57;1.60;;;;;;;11.42;76.28;96784.81;5006175;27;104296;-59
2023/03/14 05:17:54;;;;;;;2.00;0.60;;;;;;;11.26;76.64;96778.63;4992501;28;103184;-59
2023/03/14 05:20:42;;;;;;;1.37;0.60;;;;;;;11.20;76.20;96781.94;4994645;28;103126;-59
2023/03/14 05:23:33;;;;;;;0.90;0.60;;;;;;;11.19;76.22;96767.06;4993530;28;102725;-59
2023/03/14 05:26:09;;;;;;;4.37;0.80;;;;;;;11.11;76.91;96777.63;4998074;28;102738;-59
2023/03/14 05:29:00;;;;;;;4.40;1.00;;;;;;;11.17;76.23;96779.63;4971865;28;103126;-59
2023/03/14 05:31:47;;;;;;;2.00;0.77;;;;;;;11.31;75.75;96776.38;4991371;28;103130;-59
2023/03/14 05:34:30;;;;;;;2.47;0.90;;;;;;;11.24;75.73;96776.16;4995647;28;102564;-59
2023/03/14 05:37:14;;;;;;;2.30;0.80;;;;;;;11.21;76.07;96765.09;4992601;28;102863;-59
2023/03/14 05:40:17;;;;;;;4.03;1.00;;;;;;;11.14;75.93;96758.81;4972250;28;103285;-59
2023/03/14 05:42:59;;;;;;;3.17;1.10;;;;;;;11.07;75.96;96753.31;4992022;28;104118;-59
2023/03/14 05:45:46;;;;;;;2.30;1.13;;;;;;;11.10;75.49;96760.09;4993084;28;102737;-59
2023/03/14 05:48:33;;;;;;;2.00;0.70;;;;;;;11.32;75.26;96756.84;4993947;28;102837;-59
2023/03/14 05:51:07;;;;;;;1.93;0.73;;;;;;;11.34;74.90;96754.91;4990820;28;103334;-59
2023/03/14 05:53:49;;;;;;;0.73;0.50;;;;;;;11.25;75.06;96756.69;4992695;28;103349;-59
2023/03/14 05:56:17;;;;;;;1.23;0.50;;;;;;;11.37;75.68;96765.13;4998417;28;102654;-60
2023/03/14 05:58:58;;;;;;;1.83;0.70;;;;;;;11.35;75.16;96767.09;4998073;28;102756;-59
2023/03/14 06:01:34;;;;;;;1.70;0.70;;;;;;;11.40;74.93;96754.22;4989417;28;103106;-59
2023/03/14 06:04:14;;;;;;;2.97;0.97;;;;;;;11.36;74.70;96763.47;4995320;28;104333;-59
2023/03/14 06:06:43;;;;;;;2.53;0.80;;;;;;;11.47;74.65;96755.25;4984943;28;102814;-59
2023/03/14 06:09:14;;;;;;;2.27;0.60;;;;;;;11.52;74.58;96760.84;4983601;28;103968;-59
2023/03/14 06:11:44;;;;;;;1.07;0.70;;;;;;;11.64;73.84;96762.22;4911426;28;104301;-60
2023/03/14 06:14:12;;;;;;;1.77;0.90;;;;;;;11.64;73.81;96763.03;4959744;28;103142;-59
2023/03/14 06:16:44;;;;;;;3.20;0.80;;;;;;;11.39;73.90;96757.88;4992880;28;102773;-59
2023/03/14 06:19:12;;;;;;;2.97;0.97;;;;;;;11.52;74.24;96758.22;4980154;28;104029;-60
2023/03/14 06:21:41;;;;;;;2.27;0.80;;;;;;;11.59;73.86;96754.75;4992898;28;103245;-59
2023/03/14 06:24:09;;;;;;;1.87;1.10;;;;;;;11.70;73.56;96750.19;4990568;28;103163;-59
2023/03/14 06:26:47;;;;;;;2.33;0.83;;;;;;;11.51;74.25;96745.97;4997112;28;102784;-59
2023/03/14 06:29:15;;;;;;;0.77;0.60;;;;;;;11.39;74.58;96739.38;4993353;28;102685;-59
2023/03/14 06:31:43;;;;;;;1.20;0.70;;;;;;;11.45;74.16;96741.38;4996911;28;103322;-59
2023/03/14 06:34:13;;;;;;;3.70;0.90;;;;;;;11.44;74.29;96742.34;4988768;28;104504;-59
2023/03/14 06:36:41;;;;;;;1.63;1.10;;;;;;;11.32;74.19;96741.00;4996928;28;102724;-59
2023/03/14 06:39:10;;;;;;;2.40;1.00;;;;;;;11.35;74.39;96735.38;4993484;28;102912;-59
2023/03/14 06:41:42;;;;;;;1.40;0.60;;;;;;;11.39;73.59;96724.34;4991587;28;103847;-59
2023/03/14 06:44:12;;;;;;;1.77;0.60;;;;;;;11.33;73.18;96721.50;4988518;28;103179;-59
2023/03/14 06:46:40;;;;;;;5.13;0.83;;;;;;;11.38;73.43;96721.84;4990777;28;102965;-59
2023/03/14 06:49:08;;;;;;;2.40;0.73;;;;;;;11.64;72.77;96723.38;4995572;28;102712;-59
2023/03/14 06:51:36;;;;;;;1.13;0.70;;;;;;;11.69;72.46;96722.03;4994143;28;103388;-59
2023/03/14 06:54:06;;;;;;;3.43;1.20;;;;;;;11.48;72.67;96735.75;4990617;28;103409;-59
2023/03/14 06:56:35;;;;;;;4.13;0.90;;;;;;;11.60;72.45;96731.78;4988816;28;102690;-59
2023/03/14 06:59:03;;;;;;;3.63;1.10;;;;;;;11.53;72.13;96731.63;4994212;28;102804;-59
2023/03/14 07:01:35;;;;;;;1.87;0.70;;;;;;;11.62;71.00;96727.16;4989661;28;103477;-59
2023/03/14 07:04:10;;;;;;;1.90;1.27;;;;;;;11.80;71.25;96738.44;4991822;28;103122;-59
2023/03/14 07:06:44;;;;;;;4.57;0.93;;;;;;;11.87;70.30;96736.78;4984029;28;102795;-59
2023/03/14 07:09:12;;;;;;;2.57;0.87;;;;;;;12.00;70.18;96733.63;4996749;28;102786;-59
2023/03/14 07:11:44;;;;;;;1.63;0.50;;;;;;;12.27;69.85;96743.03;4990193;28;105293;-59
2023/03/14 07:14:13;;;;;;;3.17;0.80;;;;;;;12.37;69.91;96748.97;4989320;28;103359;-59
2023/03/14 07:16:42;;;;;;;3.13;0.80;;;;;;;12.39;69.84;96745.16;4997393;28;102672;-60
2023/03/14 07:19:10;;;;;;;1.97;0.60;;;;;;;12.53;68.87;96749.75;4995546;28;103482;-59
2023/03/14 07:21:46;;;;;;;1.17;0.70;;;;;;;12.71;69.48;96754.84;4994225;28;104007;-59
2023/03/14 07:24:19;;;;;;;1.07;0.77;;;;;;;13.28;66.96;96755.44;4985504;28;103132;-59
2023/03/14 07:26:47;;;;;;;1.27;0.50;;;;;;;13.17;67.34;96751.34;4994377;28;102745;-59
2023/03/14 07:29:15;;;;;;;3.80;0.90;;;;;;;12.90;67.79;96749.16;4995832;28;103961;-59
2023/03/14 07:31:45;;;;;;;1.47;0.73;;;;;;;12.76;68.13;96749.84;4986234;28;103595;-59
2023/03/14 07:34:17;;;;;;;1.10;0.60;;;;;;;13.12;67.60;96753.72;4991046;28;103164;-59
2023/03/14 07:36:48;;;;;;;2.53;0.67;;;;;;;13.11;66.87;96744.09;4992759;28;102584;-59
2023/03/14 07:39:16;;;;;;;0.70;0.50;;;;;;;13.58;65.95;96740.53;4990945;28;104257;-59
2023/03/14 07:42:00;;;;;;;2.23;0.53;;;;;;;13.53;65.34;96745.53;4996563;28;103034;-59
2023/03/14 07:44:31;;;;;;;0.53;0.40;;;;;;;13.91;64.04;96749.88;4989542;28;103128;-59
2023/03/14 07:47:01;;;;;;;0.97;0.40;;;;;;;13.94;63.24;96741.56;4991104;28;103176;-60
2023/03/14 07:49:29;;;;;;;2.40;0.47;;;;;;;13.72;63.53;96751.19;4995580;28;104569;-59
2023/03/14 07:51:57;;;;;;;1.70;0.57;;;;;;;14.28;62.79;96743.75;4990162;28;103323;-59
2023/03/14 07:54:25;;;;;;;1.17;0.50;;;;;;;14.80;62.04;96733.91;4987447;28;103928;-58
2023/03/14 07:56:53;;;;;;;0.80;0.50;;;;;;;14.98;60.85;96741.53;4990173;28;102914;-58
2023/03/14 07:59:21;;;;;;;1.63;0.80;;;;;;;15.12;59.22;96731.88;4994800;28;102792;-58
2023/03/14 08:01:49;;;;;;;0.43;0.43;;;;;;;14.88;59.37;96735.66;4993248;28;104133;-58
2023/03/14 08:04:19;;;;;;;1.03;0.50;;;;;;;14.77;59.38;96738.78;4993287;28;103163;-58
2023/03/14 08:06:46;;;;;;;0.90;0.47;;;;;;;15.00;59.19;96740.31;4995249;28;102660;-58
2023/03/14 08:09:15;;;;;;;0.60;0.40;;;;;;;15.35;57.81;96733.41;4992643;28;102787;-58
2023/03/14 08:11:43;;;;;;;0.70;0.40;;;;;;;15.81;57.42;96735.72;5000201;28;104100;-58
2023/03/14 08:14:11;;;;;;;0.80;0.40;;;;;;;15.85;57.12;96731.69;4996816;28;103433;-58
2023/03/14 08:16:39;;;;;;;2.57;0.50;;;;;;;16.02;56.48;96730.41;4996298;28;102763;-58
2023/03/14 08:19:07;;;;;;;1.03;0.43;;;;;;;16.63;55.09;96744.84;4994823;28;102744;-58
2023/03/14 08:21:36;;;;;;;0.70;0.50;;;;;;;16.61;55.89;96731.72;4997941;28;103337;-58
2023/03/14 08:24:04;;;;;;;1.13;0.50;;;;;;;16.72;54.11;96741.81;4995863;28;103211;-58
2023/03/14 08:26:32;;;;;;;1.57;0.60;;;;;;;16.90;54.29;96732.50;4997403;28;102763;-58
2023/03/14 08:28:59;;;;;;;0.50;0.40;;;;;;;17.26;53.63;96719.72;4998192;28;103880;-58
2023/03/14 08:31:28;;;;;;;0.50;0.30;;;;;;;16.62;54.02;96727.19;4997490;28;103762;-58
2023/03/14 08:33:58;;;;;;;1.73;0.63;;;;;;;16.44;53.97;96719.66;4990992;28;103361;-58
2023/03/14 08:36:26;;;;;;;1.70;0.50;;;;;;;15.39;55.03;96724.00;4999651;28;102745;-58
2023/03/14 08:38:56;;;;;;;0.50;0.37;;;;;;;15.02;56.69;96710.88;4992430;28;103875;-58
2023/03/14 08:41:24;;;;;;;1.70;0.33;;;;;;;15.14;57.11;96722.69;4995945;28;103309;-58
2023/03/14 08:43:52;;;;;;;2.60;0.30;;;;;;;15.07;56.46;96721.81;4992096;28;103202;-59
2023/03/14 08:46:20;;;;;;;2.47;0.43;;;;;;;14.82;57.34;96734.56;4996708;28;103148;-58
2023/03/14 08:48:48;;;;;;;0.30;0.30;;;;;;;14.97;55.59;96735.38;4995747;28;102990;-58
2023/03/14 08:51:16;;;;;;;1.30;0.67;;;;;;;14.75;55.43;96751.44;4999600;28;104071;-58
2023/03/14 08:53:44;;;;;;;0.80;0.30;;;;;;;14.61;56.65;96738.97;4991535;28;103202;-58
2023/03/14 08:56:14;;;;;;;2.37;0.47;;;;;;;14.75;55.59;96738.13;4996896;28;102680;-57
2023/03/14 08:58:41;;;;;;;1.23;0.40;;;;;;;15.47;55.23;96737.22;4997183;28;102870;-58
2023/03/14 09:01:11;;;;;;;2.23;0.50;;;;;;;16.39;53.41;96751.41;4994426;28;103319;-58
2023/03/14 09:03:39;;;;;;;0.93;0.37;;;;;;;16.02;53.07;96757.03;4994658;28;103174;-59
2023/03/14 09:06:09;;;;;;;0.97;0.50;;;;;;;15.35;54.49;96754.69;4995532;28;102667;-58
2023/03/14 09:08:37;;;;;;;0.80;0.37;;;;;;;15.39;55.19;96750.63;4991613;28;102741;-58
2023/03/14 09:11:08;;;;;;;0.37;0.30;;;;;;;15.86;54.29;96762.63;4989923;28;103315;-58
2023/03/14 09:13:37;;;;;;;0.60;0.40;;;;;;;15.66;55.24;96760.56;4999430;28;103268;-59
2023/03/14 09:16:07;;;;;;;0.87;0.57;;;;;;;15.31;56.57;96769.34;4993242;28;102757;-58
2023/03/14 09:18:35;;;;;;;0.55;0.28;;;;;;;15.02;58.25;96780.00;4997752;28;102685;-58
2023/03/14 09:21:03;;;;;;;0.80;0.30;;;;;;;14.44;58.39;96786.13;4987459;28;103211;-58
2023/03/14 09:23:31;;;;;;;1.00;0.30;;;;;;;14.39;58.98;96799.97;4991973;28;103191;-58
2023/03/14 09:26:00;;;;;;;0.40;0.30;;;;;;;14.91;59.24;96791.94;4993580;28;102768;-58
2023/03/14 09:28:29;;;;;;;0.80;0.40;;;;;;;14.76;60.18;96800.94;4998135;28;102735;-65
2023/03/14 09:30:58;;;;;;;1.73;0.37;;;;;;;15.03;59.73;96798.47;4990066;28;104139;-66
2023/03/14 09:33:26;;;;;;;0.80;0.50;;;;;;;14.77;59.65;96799.91;4998197;28;103215;-66
2023/03/14 09:35:54;;;;;;;1.37;0.30;;;;;;;15.08;60.16;96808.53;4992435;28;103000;-66
2023/03/14 09:38:23;;;;;;;1.63;0.47;;;;;;;15.20;59.48;96801.75;4990094;28;102991;-65
2023/03/14 09:40:51;;;;;;;0.40;0.30;;;;;;;14.79;59.30;96806.69;4993346;28;103491;-66
2023/03/14 09:43:20;;;;;;;1.00;0.33;;;;;;;14.94;59.87;96810.19;4998471;28;102955;-65
2023/03/14 09:45:49;;;;;;;0.40;0.30;;;;;;;14.83;59.53;96823.09;4998410;28;102611;-65
2023/03/14 09:48:22;;;;;;;0.30;0.30;;;;;;;14.83;59.74;96820.44;4993925;28;103498;-66
2023/03/14 09:50:54;;;;;;;1.23;0.30;;;;;;;15.16;59.34;96819.06;4995978;28;103136;-66
2023/03/14 09:53:28;;;;;;;1.20;0.40;;;;;;;15.36;58.57;96820.16;4996914;28;103171;-66
2023/03/14 09:55:59;;;;;;;0.33;0.30;;;;;;;15.18;58.92;96810.91;4996955;28;102618;-66
2023/03/14 09:58:27;;;;;;;0.70;0.33;;;;;;;15.16;58.76;96819.06;4992161;28;104466;-66
2023/03/14 10:00:57;;;;;;;0.60;0.40;;;;;;;15.06;58.90;96831.84;4991518;28;103631;-66
2023/03/14 10:03:32;;;;;;;0.50;0.30;;;;;;;16.05;57.82;96817.91;4998298;28;103249;-66
2023/03/14 10:06:01;;;;;;;0.20;0.20;;;;;;;15.51;56.93;96807.69;4997422;28;103116;-66
2023/03/14 10:08:29;;;;;;;0.83;0.30;;;;;;;15.07;57.81;96814.88;4993264;28;103024;-66
2023/03/14 10:10:57;;;;;;;0.90;0.37;;;;;;;15.81;57.59;96796.94;4993167;28;103319;-66
2023/03/14 10:13:27;;;;;;;1.07;0.50;;;;;;;16.17;56.72;96793.22;4996546;28;103188;-66
2023/03/14 10:15:59;;;;;;;0.57;0.30;;;;;;;16.49;55.04;96797.19;4998840;28;102548;-66
2023/03/14 10:18:30;;;;;;;0.82;0.30;;;;;;;16.43;54.82;96781.13;4993661;28;105065;-66
2023/03/14 10:21:07;;;;;;;0.30;0.28;;;;;;;16.18;54.24;96786.91;4994690;28;104321;-66
2023/03/14 10:23:36;;;;;;;0.43;0.20;;;;;;;16.28;54.13;96783.09;4996098;28;103144;-66
2023/03/14 10:26:09;;;;;;;0.38;0.30;;;;;;;16.25;54.42;96784.28;4992682;28;102706;-66
2023/03/14 10:28:40;;;;;;;0.98;0.22;;;;;;;15.57;53.72;96780.34;4995091;28;102704;-66
2023/03/14 10:31:08;;;;;;;0.35;0.28;;;;;;;16.39;53.13;96791.38;4992629;28;105348;-66
2023/03/14 10:33:39;;;;;;;0.40;0.25;;;;;;;15.54;55.07;96783.38;4997181;28;102971;-67
2023/03/14 10:36:19;;;;;;;0.30;0.30;;;;;;;15.79;54.65;96777.69;4998205;28;102790;-67
2023/03/14 10:38:47;;;;;;;0.20;0.20;;;;;;;15.03;55.64;96777.19;4996547;28;103499;-67
2023/03/14 10:41:24;;;;;;;0.55;0.30;;;;;;;14.77;56.55;96778.63;4996765;28;103581;-67
2023/03/14 10:43:58;;;;;;;1.23;0.30;;;;;;;15.02;56.96;96785.34;4991080;28;103415;-66
2023/03/14 10:46:30;;;;;;;0.30;0.30;;;;;;;14.77;56.86;96789.28;4997380;28;102767;-66
2023/03/14 10:49:28;;;;;;;0.20;0.20;;;;;;;15.53;56.09;96792.38;4994394;28;102743;-66
2023/03/14 10:51:57;;;;;;;0.65;0.30;;;;;;;15.34;55.95;96792.94;4996564;28;103307;-67
2023/03/14 10:54:25;;;;;;;1.33;0.30;;;;;;;14.74;56.47;96797.59;4994788;28;103275;-68
2023/03/14 10:57:00;;;;;;;0.20;0.20;;;;;;;14.65;58.44;96804.03;4996892;28;102645;-67
2023/03/14 10:59:33;;;;;;;1.08;0.38;;;;;;;15.09;57.02;96808.38;4975281;28;104302;-67
2023/03/14 11:02:14;;;;;;;0.28;0.28;;;;;;;14.84;57.37;96808.81;4991557;28;103219;-67
2023/03/14 11:05:04;;;;;;;0.30;0.30;;;;;;;14.35;58.87;96814.59;4988979;28;103356;-66
2023/03/14 11:07:37;;;;;;;0.43;0.40;;;;;;;14.36;58.95;96826.88;4992595;28;103316;-66
2023/03/14 11:10:19;;;;;;;1.63;0.40;;;;;;;14.31;61.08;96817.78;4995524;28;102825;-66
2023/03/14 11:13:02;;;;;;;0.73;0.40;;;;;;;14.40;62.21;96828.16;4994591;28;105588;-67
2023/03/14 11:15:35;;;;;;;0.40;0.30;;;;;;;14.64;62.17;96834.25;4992994;28;103167;-66
2023/03/14 11:18:45;;;;;;;0.30;0.30;;;;;;;14.41;62.99;96840.44;4992960;28;102804;-67
2023/03/14 11:21:22;;;;;;;0.53;0.40;;;;;;;14.03;66.00;96841.38;4996446;28;104117;-67
2023/03/14 11:24:04;;;;;;;0.50;0.40;;;;;;;13.90;66.41;96846.44;4995982;28;103313;-66
2023/03/14 11:26:38;;;;;;;0.70;0.70;;;;;;;13.69;69.45;96846.25;4990411;28;103185;-67
2023/03/14 11:29:19;;;;;;;0.67;0.47;;;;;;;13.43;69.64;96843.06;4996779;28;103996;-66
2023/03/14 11:31:47;;;;;;;0.30;0.30;;;;;;;13.40;70.87;96851.34;4991971;28;103990;-66
2023/03/14 11:34:18;;;;;;;0.20;0.20;;;;;;;13.25;70.19;96852.06;4990002;28;103188;-66
2023/03/14 11:36:53;;;;;;;0.60;0.30;;;;;;;13.46;72.19;96853.31;4995636;28;103110;-66
2023/03/14 11:39:22;;;;;;;0.53;0.30;;;;;;;13.49;71.81;96843.19;4997773;28;102700;-66
2023/03/14 11:41:53;;;;;;;0.40;0.30;;;;;;;13.61;71.12;96848.94;4992736;28;102832;-66
2023/03/14 11:44:24;;;;;;;1.23;0.40;;;;;;;13.11;71.40;96850.13;4995756;28;104161;-66
2023/03/14 11:46:58;;;;;;;0.20;0.20;;;;;;;13.20;71.64;96859.72;4986062;28;103183;-66